createdAt,value
2019-01-15T00:00:38.580Z,9.40
2019-01-15T00:03:05.720Z,15.77
2019-01-15T00:05:32.532Z,11.80
2019-01-15T00:07:59.674Z,11.30
2019-01-15T00:10:26.593Z,10.30
2019-01-15T00:12:53.516Z,10.47
2019-01-15T00:15:20.304Z,9.30
2019-01-15T00:17:47.204Z,16.63
2019-01-15T00:20:14.163Z,9.87
2019-01-15T00:22:41.091Z,11.97
2019-01-15T00:25:08.109Z,16.13
2019-01-15T00:27:35.136Z,24.53
2019-01-15T00:30:02.359Z,13.30
2019-01-15T00:32:29.219Z,16.63
2019-01-15T00:34:56.009Z,14.83
2019-01-15T00:37:22.813Z,13.80
2019-01-15T00:39:49.701Z,11.70
2019-01-15T00:42:16.493Z,8.77
2019-01-15T00:44:43.274Z,13.80
2019-01-15T00:47:10.100Z,9.90
2019-01-15T00:49:36.893Z,17.07
2019-01-15T00:52:03.813Z,9.40
2019-01-15T00:54:30.640Z,15.00
2019-01-15T00:56:57.456Z,9.73
2019-01-15T00:59:27.030Z,13.20
2019-01-15T01:01:53.832Z,19.17
2019-01-15T01:04:20.868Z,14.47
2019-01-15T01:06:47.930Z,10.73
2019-01-15T01:09:14.729Z,14.33
2019-01-15T01:11:41.631Z,15.17
2019-01-15T01:14:08.632Z,12.83
2019-01-15T01:16:35.568Z,9.90
2019-01-15T01:19:02.534Z,16.07
2019-01-15T01:21:29.359Z,11.40
2019-01-15T01:23:56.328Z,14.03
2019-01-15T01:26:23.120Z,10.50
2019-01-15T01:28:49.925Z,15.33
2019-01-15T01:31:16.967Z,17.13
2019-01-15T01:33:43.748Z,14.93
2019-01-15T01:36:10.556Z,6.23
2019-01-15T01:38:37.443Z,13.50
2019-01-15T01:41:04.237Z,19.53
2019-01-15T01:43:31.015Z,15.10
2019-01-15T01:45:57.823Z,9.63
2019-01-15T01:48:24.587Z,15.70
2019-01-15T01:50:51.395Z,17.73
2019-01-15T01:53:18.296Z,16.07
2019-01-15T01:55:45.106Z,10.03
2019-01-15T01:58:11.880Z,17.37
2019-01-15T02:00:39.044Z,16.37
2019-01-15T02:03:05.943Z,13.50
2019-01-15T02:05:32.763Z,16.00
2019-01-15T02:07:59.598Z,23.53
2019-01-15T02:10:26.387Z,12.23
2019-01-15T02:12:53.189Z,10.47
2019-01-15T02:15:21.263Z,15.70
2019-01-15T02:17:48.161Z,11.67
2019-01-15T02:20:15.275Z,19.10
2019-01-15T02:22:42.095Z,23.70
2019-01-15T02:25:09.129Z,27.20
2019-01-15T02:27:37.840Z,18.67
2019-01-15T02:30:05.733Z,11.10
2019-01-15T02:32:32.533Z,13.67
2019-01-15T02:34:59.348Z,17.50
2019-01-15T02:37:26.187Z,8.13
2019-01-15T02:39:53.063Z,14.23
2019-01-15T02:42:19.836Z,12.07
2019-01-15T02:44:46.660Z,19.23
2019-01-15T02:47:13.430Z,17.30
2019-01-15T02:49:40.196Z,19.70
2019-01-15T02:52:07.198Z,8.57
2019-01-15T02:54:34.200Z,17.83
2019-01-15T02:57:01.327Z,18.73
2019-01-15T02:59:28.130Z,14.80
2019-01-15T03:01:55.180Z,9.10
2019-01-15T03:04:21.979Z,9.40
2019-01-15T03:06:48.946Z,21.63
2019-01-15T03:09:17.776Z,14.17
2019-01-15T03:11:44.679Z,9.87
2019-01-15T03:14:11.681Z,6.80
2019-01-15T03:16:38.483Z,27.43
2019-01-15T03:19:05.304Z,9.70
2019-01-15T03:21:32.291Z,12.50
2019-01-15T03:23:59.180Z,7.10
2019-01-15T03:26:25.976Z,14.67
2019-01-15T03:28:52.785Z,12.50
2019-01-15T03:31:19.662Z,14.80
2019-01-15T03:33:46.427Z,21.03
2019-01-15T03:36:13.451Z,18.33
2019-01-15T03:38:40.211Z,21.37
2019-01-15T03:41:07.230Z,13.63
2019-01-15T03:43:34.064Z,20.97
2019-01-15T03:46:04.505Z,10.00
2019-01-15T03:48:29.556Z,14.43
2019-01-15T03:50:56.375Z,18.67
2019-01-15T03:53:23.388Z,15.93
2019-01-15T03:55:50.382Z,17.20
2019-01-15T03:58:17.292Z,13.33
2019-01-15T04:00:44.150Z,12.97
2019-01-15T04:03:10.940Z,15.77
2019-01-15T04:05:37.739Z,17.63
2019-01-15T04:08:04.863Z,11.70
2019-01-15T04:10:31.864Z,14.30
2019-01-15T04:12:58.857Z,19.57
2019-01-15T04:15:25.725Z,14.73
2019-01-15T04:17:52.646Z,11.27
2019-01-15T04:20:19.430Z,13.53
2019-01-15T04:22:46.676Z,14.67
2019-01-15T04:25:13.592Z,15.10
2019-01-15T04:27:40.444Z,12.07
2019-01-15T04:30:09.001Z,17.97
2019-01-15T04:32:35.796Z,11.70
2019-01-15T04:35:03.390Z,12.73
2019-01-15T04:37:30.151Z,11.50
2019-01-15T04:39:56.935Z,23.73
2019-01-15T04:42:23.768Z,16.87
2019-01-15T04:44:51.803Z,11.60
2019-01-15T04:47:18.579Z,12.37
2019-01-15T04:49:45.412Z,15.83
2019-01-15T04:52:12.168Z,20.90
2019-01-15T04:54:39.882Z,21.07
2019-01-15T04:57:06.906Z,15.90
2019-01-15T04:59:34.008Z,11.67
2019-01-15T05:02:00.902Z,13.37
2019-01-15T05:04:27.707Z,13.83
2019-01-15T05:06:54.491Z,16.13
2019-01-15T05:09:21.266Z,9.30
2019-01-15T05:11:48.122Z,12.30
2019-01-15T05:14:14.935Z,13.90
2019-01-15T05:16:41.707Z,11.07
2019-01-15T05:19:08.668Z,20.83
2019-01-15T05:21:35.488Z,20.17
2019-01-15T05:24:02.396Z,14.80
2019-01-15T05:26:29.365Z,18.53
2019-01-15T05:28:56.255Z,15.83
2019-01-15T05:31:23.064Z,16.63
2019-01-15T05:33:49.964Z,14.37
2019-01-15T05:36:16.820Z,17.47
2019-01-15T05:38:43.639Z,12.43
2019-01-15T05:41:10.436Z,10.63
2019-01-15T05:43:37.215Z,11.47
2019-01-15T05:46:04.096Z,12.43
2019-01-15T05:48:33.738Z,7.20
2019-01-15T05:51:20.387Z,19.13
2019-01-15T05:53:47.277Z,10.03
2019-01-15T05:56:14.121Z,17.97
2019-01-15T05:58:40.976Z,18.13
2019-01-15T06:01:08.051Z,15.00
2019-01-15T06:03:34.853Z,11.30
2019-01-15T06:06:01.791Z,15.47
2019-01-15T06:08:28.712Z,9.70
2019-01-15T06:10:55.487Z,16.63
2019-01-15T06:13:22.405Z,12.77
2019-01-15T06:15:49.291Z,12.67
2019-01-15T06:18:16.154Z,8.90
2019-01-15T06:20:42.916Z,14.03
2019-01-15T06:23:10.081Z,17.50
2019-01-15T06:25:36.901Z,15.80
2019-01-15T06:28:03.664Z,12.33
2019-01-15T06:30:30.455Z,19.13
2019-01-15T06:32:57.267Z,14.47
2019-01-15T06:35:24.033Z,10.10
2019-01-15T06:37:51.530Z,14.63
2019-01-15T06:40:18.893Z,7.93
2019-01-15T06:42:45.957Z,10.60
2019-01-15T06:45:14.289Z,10.23
2019-01-15T06:47:41.211Z,14.93
2019-01-15T06:50:08.364Z,9.83
2019-01-15T06:52:35.260Z,14.50
2019-01-15T06:55:02.437Z,16.60
2019-01-15T06:57:29.320Z,8.17
2019-01-15T06:59:56.123Z,13.30
2019-01-15T07:02:22.904Z,14.67
2019-01-15T07:04:49.715Z,11.73
2019-01-15T07:07:16.841Z,14.93
2019-01-15T07:09:43.864Z,10.17
2019-01-15T07:12:10.855Z,8.03
2019-01-15T07:14:38.045Z,5.90
2019-01-15T07:17:04.856Z,15.33
2019-01-15T07:19:31.632Z,18.93
2019-01-15T07:21:58.674Z,15.90
2019-01-15T07:24:25.621Z,5.40
2019-01-15T07:26:52.435Z,13.10
2019-01-15T07:29:19.529Z,8.90
2019-01-15T07:31:46.562Z,7.17
2019-01-15T07:34:13.418Z,5.90
2019-01-15T07:36:40.297Z,24.60
2019-01-15T07:39:07.730Z,5.70
2019-01-15T07:41:34.831Z,9.00
2019-01-15T07:44:04.403Z,15.47
2019-01-15T07:46:30.351Z,4.83
2019-01-15T07:48:57.346Z,10.97
2019-01-15T07:51:24.320Z,16.83
2019-01-15T07:53:51.425Z,11.63
2019-01-15T07:56:18.525Z,3.23
2019-01-15T07:58:45.348Z,29.17
2019-01-15T08:01:12.148Z,10.23
2019-01-15T08:03:38.973Z,11.50
2019-01-15T08:06:05.807Z,11.23
2019-01-15T08:08:32.605Z,7.33
2019-01-15T08:10:59.420Z,6.20
2019-01-15T08:13:26.262Z,12.23
2019-01-15T08:15:53.073Z,4.70
2019-01-15T08:18:19.882Z,5.60
2019-01-15T08:20:46.667Z,10.17
2019-01-15T08:23:13.480Z,10.40
2019-01-15T08:25:40.491Z,10.00
2019-01-15T08:28:07.307Z,13.97
2019-01-15T08:30:34.685Z,15.30
2019-01-15T08:33:01.501Z,15.53
2019-01-15T08:35:28.420Z,6.60
2019-01-15T08:37:55.331Z,11.73
2019-01-15T08:40:22.543Z,9.00
2019-01-15T08:42:49.534Z,7.70
2019-01-15T08:45:16.542Z,9.93
2019-01-15T08:47:50.222Z,12.90
2019-01-15T08:50:18.407Z,6.10
2019-01-15T08:52:45.208Z,11.33
2019-01-15T08:55:11.977Z,10.13
2019-01-15T08:57:38.912Z,13.20
2019-01-15T09:00:06.304Z,6.87
2019-01-15T09:02:33.101Z,10.00
2019-01-15T09:04:59.911Z,11.60
2019-01-15T09:07:26.733Z,14.67
2019-01-15T09:09:53.502Z,10.03
2019-01-15T09:12:20.433Z,6.43
2019-01-15T09:14:47.241Z,11.30
2019-01-15T09:17:14.038Z,7.47
2019-01-15T09:19:40.984Z,6.20
2019-01-15T09:22:07.874Z,6.67
2019-01-15T09:24:34.910Z,10.17
2019-01-15T09:27:02.007Z,5.57
2019-01-15T09:29:28.829Z,15.00
2019-01-15T09:31:55.591Z,6.97
2019-01-15T09:34:22.406Z,11.90
2019-01-15T09:36:49.193Z,9.10
2019-01-15T09:39:15.958Z,6.40
2019-01-15T09:41:43.085Z,12.47
2019-01-15T09:44:09.896Z,11.50
2019-01-15T09:46:36.712Z,10.20
2019-01-15T09:49:03.780Z,10.43
2019-01-15T09:51:30.555Z,12.30
2019-01-15T09:53:57.591Z,7.50
2019-01-15T09:56:24.529Z,13.47
2019-01-15T09:58:51.555Z,17.63
2019-01-15T10:01:18.367Z,11.20
2019-01-15T10:03:45.297Z,9.43
2019-01-15T10:06:12.161Z,9.57
2019-01-15T10:08:39.011Z,14.30
2019-01-15T10:11:05.819Z,12.07
2019-01-15T10:13:32.635Z,15.00
2019-01-15T10:15:59.447Z,14.80
2019-01-15T10:18:26.361Z,7.40
2019-01-15T10:20:53.128Z,7.03
2019-01-15T10:23:19.952Z,11.73
2019-01-15T10:25:46.839Z,20.80
2019-01-15T10:28:15.348Z,10.33
2019-01-15T10:30:45.901Z,11.70
2019-01-15T10:33:21.173Z,14.67
2019-01-15T10:35:52.033Z,9.20
2019-01-15T10:38:19.011Z,13.43
2019-01-15T10:40:46.015Z,16.93
2019-01-15T10:43:12.861Z,20.97
2019-01-15T10:45:39.670Z,11.00
2019-01-15T10:48:06.568Z,23.17
2019-01-15T10:50:33.619Z,11.67
2019-01-15T10:53:00.473Z,10.10
2019-01-15T10:55:27.317Z,6.10
2019-01-15T10:57:54.100Z,10.17
2019-01-15T11:00:21.089Z,10.00
2019-01-15T11:02:47.892Z,9.33
2019-01-15T11:05:14.803Z,9.73
2019-01-15T11:07:41.657Z,8.27
2019-01-15T11:10:12.608Z,17.87
2019-01-15T11:12:40.774Z,11.47
2019-01-15T11:15:08.299Z,10.53
2019-01-15T11:17:35.140Z,10.57
2019-01-15T11:20:02.581Z,7.47
2019-01-15T11:22:29.349Z,12.90
2019-01-15T11:24:56.201Z,12.77
2019-01-15T11:27:22.979Z,14.77
2019-01-15T11:29:49.764Z,12.13
2019-01-15T11:32:16.569Z,11.03
2019-01-15T11:34:43.440Z,18.40
2019-01-15T11:37:10.251Z,14.17
2019-01-15T11:39:37.881Z,16.20
2019-01-15T11:42:04.880Z,15.60
2019-01-15T11:44:31.677Z,10.83
2019-01-15T11:46:58.505Z,13.03
2019-01-15T11:49:25.521Z,12.70
2019-01-15T11:51:52.327Z,24.87
2019-01-15T11:54:19.161Z,16.57
2019-01-15T11:56:45.977Z,20.33
2019-01-15T11:59:13.217Z,18.93
2019-01-15T12:01:46.948Z,18.40
2019-01-15T12:04:26.401Z,22.17
2019-01-15T12:07:15.732Z,20.43
2019-01-15T12:10:08.235Z,16.03
2019-01-15T12:12:53.071Z,21.30
2019-01-15T12:15:37.177Z,15.53
2019-01-15T12:18:15.013Z,17.53
2019-01-15T12:21:04.500Z,20.43
2019-01-15T12:23:45.424Z,23.73
2019-01-15T12:26:33.165Z,17.87
2019-01-15T12:29:20.040Z,16.53
2019-01-15T12:31:59.814Z,16.63
2019-01-15T12:34:38.900Z,18.60
2019-01-15T12:37:22.487Z,16.27
2019-01-15T12:40:12.041Z,16.90
2019-01-15T12:42:54.487Z,18.13
2019-01-15T12:45:40.623Z,19.33
2019-01-15T12:48:25.613Z,18.43
2019-01-15T12:51:05.469Z,25.40
2019-01-15T12:53:50.559Z,20.10
2019-01-15T12:56:44.574Z,21.17
2019-01-15T12:59:30.157Z,19.73
2019-01-15T13:02:13.291Z,17.20
2019-01-15T13:04:48.693Z,21.90
2019-01-15T13:07:44.100Z,19.47
2019-01-15T13:10:39.764Z,26.03
2019-01-15T13:13:24.739Z,28.77
2019-01-15T13:15:58.400Z,25.43
2019-01-15T13:18:47.600Z,25.53
2019-01-15T13:21:36.796Z,27.33
2019-01-15T13:24:26.355Z,29.97
2019-01-15T13:27:12.549Z,27.90
2019-01-15T13:30:02.274Z,26.23
2019-01-15T13:32:47.423Z,29.20
2019-01-15T13:35:36.824Z,28.63
2019-01-15T13:38:38.404Z,26.53
2019-01-15T13:41:23.202Z,27.27
2019-01-15T13:43:58.989Z,38.73
2019-01-15T13:46:51.409Z,32.93
2019-01-15T13:49:35.368Z,32.07
2019-01-15T13:52:20.294Z,37.03
2019-01-15T13:55:06.441Z,37.03
2019-01-15T13:58:05.578Z,35.07
2019-01-15T14:00:46.959Z,31.47
2019-01-15T14:03:25.523Z,33.20
2019-01-15T14:06:13.953Z,35.13
2019-01-15T14:08:50.411Z,35.67
2019-01-15T14:11:40.323Z,33.93
2019-01-15T14:14:42.068Z,34.87
2019-01-15T14:17:21.439Z,29.73
2019-01-15T14:20:00.000Z,32.13
2019-01-15T14:22:49.296Z,38.00
2019-01-15T14:25:44.864Z,37.53
2019-01-15T14:28:22.812Z,28.17
2019-01-15T14:31:10.768Z,31.77
2019-01-15T14:34:06.227Z,30.47
2019-01-15T14:36:56.196Z,30.83
2019-01-15T14:39:58.032Z,32.00
2019-01-15T14:42:39.035Z,30.27
2019-01-15T14:45:26.273Z,28.33
2019-01-15T14:48:21.697Z,30.90
2019-01-15T14:51:06.719Z,32.93
2019-01-15T14:53:43.267Z,35.63
2019-01-15T14:56:28.133Z,33.70
2019-01-15T14:59:29.628Z,28.70
2019-01-15T15:02:14.896Z,35.20
2019-01-15T15:04:56.145Z,28.07
2019-01-15T15:07:48.725Z,33.27
2019-01-15T15:10:37.112Z,29.43
2019-01-15T15:13:16.543Z,28.10
2019-01-15T15:16:08.163Z,28.30
2019-01-15T15:18:53.059Z,30.93
2019-01-15T15:21:40.536Z,31.67
2019-01-15T15:24:39.646Z,29.03
2019-01-15T15:27:16.734Z,31.07
2019-01-15T15:30:15.358Z,33.00
2019-01-15T15:33:10.736Z,29.40
2019-01-15T15:35:58.903Z,34.10
2019-01-15T15:38:56.014Z,33.90
2019-01-15T15:41:58.212Z,33.60
2019-01-15T15:44:48.023Z,38.87
2019-01-15T15:47:43.745Z,38.50
2019-01-15T15:50:33.559Z,37.80
2019-01-15T15:53:18.574Z,36.43
2019-01-15T15:56:07.506Z,42.67
2019-01-15T15:58:52.656Z,38.00
2019-01-15T16:01:37.623Z,38.40
2019-01-15T16:04:30.447Z,42.20
2019-01-15T16:07:06.479Z,42.43
2019-01-15T16:09:48.106Z,49.60
2019-01-15T16:12:43.531Z,44.73
2019-01-15T16:15:39.734Z,40.57
2019-01-15T16:18:26.464Z,39.93
2019-01-15T16:21:03.856Z,38.93
2019-01-15T16:23:39.014Z,48.33
2019-01-15T16:26:28.553Z,46.93
2019-01-15T16:29:13.766Z,42.20
2019-01-15T16:31:49.277Z,44.87
2019-01-15T16:34:38.508Z,44.07
2019-01-15T16:37:16.356Z,46.90
2019-01-15T16:40:01.521Z,43.53
2019-01-15T16:42:48.195Z,43.40
2019-01-15T16:45:39.562Z,42.73
2019-01-15T16:48:38.163Z,43.70
2019-01-15T16:51:20.220Z,38.13
2019-01-15T16:54:12.576Z,40.80
2019-01-15T16:56:54.215Z,50.97
2019-01-15T16:59:39.408Z,36.47
2019-01-15T17:02:18.929Z,45.77
2019-01-15T17:05:11.837Z,39.57
2019-01-15T17:07:59.329Z,37.20
2019-01-15T17:10:33.790Z,51.73
2019-01-15T17:13:23.051Z,42.80
2019-01-15T17:16:08.204Z,35.87
2019-01-15T17:18:43.307Z,34.33
2019-01-15T17:21:33.647Z,39.20
2019-01-15T17:24:17.048Z,36.27
2019-01-15T17:26:52.563Z,36.23
2019-01-15T17:29:38.050Z,36.00
2019-01-15T17:32:19.721Z,32.97
2019-01-15T17:35:10.019Z,34.00
2019-01-15T17:37:54.493Z,37.80
2019-01-15T17:40:41.106Z,30.00
2019-01-15T17:43:39.436Z,34.10
2019-01-15T17:46:22.407Z,32.37
2019-01-15T17:49:18.757Z,32.33
2019-01-15T17:52:11.546Z,27.47
2019-01-15T17:54:53.216Z,29.63
2019-01-15T17:57:40.674Z,29.37
2019-01-15T18:00:24.483Z,31.10
2019-01-15T18:03:14.351Z,24.17
2019-01-15T18:06:02.905Z,26.43
2019-01-15T18:08:52.185Z,31.50
2019-01-15T18:11:50.117Z,26.13
2019-01-15T18:14:34.971Z,33.57
2019-01-15T18:17:16.687Z,31.70
2019-01-15T18:20:04.581Z,27.07
2019-01-15T18:23:06.208Z,31.50
2019-01-15T18:25:48.419Z,26.27
2019-01-15T18:28:31.995Z,31.43
2019-01-15T18:31:23.366Z,26.70
2019-01-15T18:34:03.882Z,28.90
2019-01-15T18:36:57.581Z,28.17
2019-01-15T18:39:44.796Z,91.43
2019-01-15T18:42:29.899Z,26.20
2019-01-15T18:45:06.265Z,35.30
2019-01-15T18:47:51.163Z,27.67
2019-01-15T18:50:45.224Z,30.47
2019-01-15T18:53:31.822Z,25.53
2019-01-15T18:56:06.931Z,26.07
2019-01-15T18:58:56.186Z,22.67
2019-01-15T19:01:51.913Z,26.13
2019-01-15T19:04:41.536Z,32.33
2019-01-15T19:07:26.391Z,23.93
2019-01-15T19:10:20.124Z,25.50
2019-01-15T19:13:03.249Z,28.53
2019-01-15T19:15:57.661Z,26.60
2019-01-15T19:18:40.729Z,23.00
2019-01-15T19:21:23.799Z,21.43
2019-01-15T19:24:09.071Z,22.50
2019-01-15T19:26:44.153Z,22.63
2019-01-15T19:29:27.936Z,27.50
2019-01-15T19:32:09.150Z,27.23
2019-01-15T19:35:01.723Z,29.10
2019-01-15T19:37:51.270Z,32.10
2019-01-15T19:40:36.209Z,29.00
2019-01-15T19:43:14.877Z,34.80
2019-01-15T19:46:03.484Z,30.83
2019-01-15T19:48:45.062Z,26.70
2019-01-15T19:51:40.324Z,28.60
2019-01-15T19:54:24.869Z,27.10
2019-01-15T19:57:04.353Z,29.40
2019-01-15T19:59:41.300Z,38.63
2019-01-15T20:02:26.035Z,44.23
2019-01-15T20:05:02.229Z,45.33
2019-01-15T20:07:47.084Z,41.27
2019-01-15T20:10:29.040Z,26.43
2019-01-15T20:13:05.323Z,27.27
2019-01-15T20:15:47.185Z,28.73
2019-01-15T20:18:32.050Z,31.47
2019-01-15T20:21:16.988Z,25.43
2019-01-15T20:24:01.897Z,31.87
2019-01-15T20:26:54.350Z,27.53
2019-01-15T20:29:39.528Z,30.73
2019-01-15T20:32:19.660Z,35.77
2019-01-15T20:35:13.310Z,33.57
2019-01-15T20:38:17.999Z,30.00
2019-01-15T20:41:12.851Z,29.30
2019-01-15T20:44:02.138Z,32.83
2019-01-15T20:46:40.683Z,29.40
2019-01-15T20:49:39.143Z,26.13
2019-01-15T20:52:40.766Z,34.23
2019-01-15T20:55:29.461Z,27.77
2019-01-15T20:58:23.461Z,30.17
2019-01-15T21:01:06.387Z,28.37
2019-01-15T21:03:52.996Z,30.83
2019-01-15T21:06:38.343Z,30.77
2019-01-15T21:09:24.345Z,26.03
2019-01-15T21:12:08.124Z,28.70
2019-01-15T21:15:00.419Z,29.93
2019-01-15T21:17:52.988Z,28.53
2019-01-15T21:20:38.292Z,24.43
2019-01-15T21:23:36.446Z,27.87
2019-01-15T21:26:21.333Z,25.93
2019-01-15T21:29:06.229Z,25.17
2019-01-15T21:31:58.469Z,25.50
2019-01-15T21:34:43.449Z,19.80
2019-01-15T21:37:20.606Z,22.27
2019-01-15T21:39:55.913Z,27.00
2019-01-15T21:42:42.729Z,21.33
2019-01-15T21:45:27.671Z,21.27
2019-01-15T21:48:05.186Z,21.10
2019-01-15T21:50:50.333Z,19.30
2019-01-15T21:53:29.355Z,18.57
2019-01-15T21:56:16.729Z,21.50
2019-01-15T21:59:19.464Z,21.67
2019-01-15T22:02:05.573Z,24.53
2019-01-15T22:04:56.259Z,17.60
2019-01-15T22:07:42.551Z,21.37
2019-01-15T22:10:33.074Z,21.10
2019-01-15T22:13:25.879Z,20.67
2019-01-15T22:16:11.462Z,24.20
2019-01-15T22:18:58.356Z,21.10
2019-01-15T22:21:44.661Z,24.90
2019-01-15T22:24:30.347Z,22.23
2019-01-15T22:27:20.352Z,28.50
2019-01-15T22:30:09.583Z,31.43
2019-01-15T22:32:48.284Z,26.50
2019-01-15T22:35:35.077Z,29.77
2019-01-15T22:38:27.621Z,33.73
2019-01-15T22:41:04.890Z,37.57
2019-01-15T22:43:40.517Z,29.80
2019-01-15T22:46:25.473Z,36.43
2019-01-15T22:49:12.083Z,34.33
2019-01-15T22:51:57.004Z,30.10
2019-01-15T22:54:41.829Z,30.57
2019-01-15T22:57:27.478Z,31.00
2019-01-15T23:00:12.374Z,32.50
2019-01-15T23:02:55.017Z,29.77
2019-01-15T23:05:35.155Z,26.83
2019-01-15T23:08:30.553Z,30.17
2019-01-15T23:11:15.809Z,25.20
2019-01-15T23:13:48.063Z,24.37
2019-01-15T23:16:34.685Z,26.53
2019-01-15T23:19:20.026Z,28.20
2019-01-15T23:22:09.307Z,26.40
2019-01-15T23:25:02.296Z,27.03
2019-01-15T23:27:54.743Z,23.93
2019-01-15T23:30:45.276Z,25.40
2019-01-15T23:33:30.383Z,27.50
2019-01-15T23:36:18.188Z,26.67
2019-01-15T23:39:02.298Z,28.37
2019-01-15T23:41:47.269Z,24.97
2019-01-15T23:44:26.320Z,22.00
2019-01-15T23:47:03.973Z,20.60
2019-01-15T23:49:49.235Z,24.07
2019-01-15T23:52:24.685Z,23.30
2019-01-15T23:55:15.453Z,20.90
2019-01-15T23:57:59.864Z,22.80
